Time;durP1;ratioP1;P1;durP2;ratioP2;P2;SDS_P1;SDS_P2;PMS_P1;PMS_P2;Temp;Humidity;BMP_temperature;BMP_pressure;BME280_temperature;BME280_humidity;BME280_pressure;Samples;Min_cycle;Max_cycle;Signal;HPM_P1;HPM_P2
2022/08/07 00:01:58;;;;;;;2.45;0.80;;;;;;;12.84;100.00;101743.97;5201258;28;20040;-74
2022/08/07 00:04:28;;;;;;;1.70;0.60;;;;;;;13.04;100.00;101744.38;5201250;28;20613;-75
2022/08/07 00:06:59;;;;;;;1.65;0.88;;;;;;;13.28;98.34;101744.56;5199981;28;20025;-74
2022/08/07 00:09:29;;;;;;;1.15;0.63;;;;;;;12.96;96.51;101746.31;5200211;28;20545;-75
2022/08/07 00:11:59;;;;;;;1.25;0.50;;;;;;;13.04;95.40;101750.47;5200755;28;20029;-75
2022/08/07 00:14:30;;;;;;;2.38;0.40;;;;;;;12.44;94.63;101753.75;5199330;28;20033;-74
2022/08/07 00:17:01;;;;;;;3.22;0.57;;;;;;;12.31;99.83;101751.47;5199842;28;20020;-74
2022/08/07 00:19:32;;;;;;;4.95;0.70;;;;;;;12.18;99.79;101753.53;5200398;28;20040;-73
2022/08/07 00:22:02;;;;;;;1.20;0.60;;;;;;;12.03;100.00;101748.66;5199329;28;20030;-75
2022/08/07 00:24:33;;;;;;;3.38;0.50;;;;;;;12.30;100.00;101745.34;5199746;28;20113;-75
2022/08/07 00:27:03;;;;;;;1.33;0.40;;;;;;;12.52;98.47;101743.97;5200358;28;20124;-75
2022/08/07 00:29:33;;;;;;;4.53;0.88;;;;;;;12.44;96.66;101743.28;5200515;28;20032;-75
2022/08/07 00:32:05;;;;;;;1.48;0.65;;;;;;;12.15;100.00;101748.34;5200675;28;20028;-74
2022/08/07 00:34:36;;;;;;;1.90;0.70;;;;;;;11.80;100.00;101744.81;5201529;28;20041;-74
2022/08/07 00:37:06;;;;;;;2.25;0.60;;;;;;;11.62;100.00;101742.59;5199553;28;20444;-74
2022/08/07 00:39:36;;;;;;;2.45;0.80;;;;;;;11.50;100.00;101741.06;5191552;28;20112;-75
2022/08/07 00:42:07;;;;;;;1.48;0.77;;;;;;;11.61;100.00;101736.47;5196028;28;20025;-74
2022/08/07 00:44:37;;;;;;;1.33;0.75;;;;;;;12.12;100.00;101740.56;5199577;28;20582;-74
2022/08/07 00:47:08;;;;;;;6.60;1.65;;;;;;;12.04;99.86;101736.38;5199622;28;20071;-74
2022/08/07 00:49:38;;;;;;;1.80;0.70;;;;;;;11.70;100.00;101736.28;5199375;28;20435;-74
2022/08/07 00:52:09;;;;;;;1.10;0.60;;;;;;;11.47;100.00;101738.47;5199880;28;20497;-74
2022/08/07 00:54:39;;;;;;;3.38;0.77;;;;;;;11.41;100.00;101733.38;5199547;28;20553;-74
2022/08/07 00:57:11;;;;;;;0.80;0.70;;;;;;;11.47;100.00;101733.25;5199141;28;20383;-74
2022/08/07 00:59:42;;;;;;;2.13;0.70;;;;;;;11.66;100.00;101736.38;5199250;28;20029;-74
2022/08/07 01:02:12;;;;;;;2.42;0.77;;;;;;;11.92;100.00;101732.28;5195693;28;20025;-74
2022/08/07 01:04:43;;;;;;;1.63;0.70;;;;;;;12.21;100.00;101731.63;5199425;28;20390;-74
2022/08/07 01:07:13;;;;;;;0.98;0.68;;;;;;;12.24;99.09;101736.78;5199337;28;20025;-74
2022/08/07 01:09:44;;;;;;;5.07;0.80;;;;;;;11.65;100.00;101738.13;5199634;28;20065;-75
2022/08/07 01:12:15;;;;;;;1.95;0.90;;;;;;;11.64;100.00;101740.78;5199960;28;20509;-75
2022/08/07 01:14:46;;;;;;;1.40;0.80;;;;;;;11.36;100.00;101737.84;5199404;28;20498;-75
2022/08/07 01:17:16;;;;;;;2.33;0.80;;;;;;;11.25;100.00;101742.44;5198758;28;20017;-74
2022/08/07 01:19:48;;;;;;;2.75;0.80;;;;;;;11.31;100.00;101739.69;5199104;28;20037;-74
2022/08/07 01:22:20;;;;;;;1.40;0.70;;;;;;;11.41;100.00;101741.22;5178122;28;20030;-75
2022/08/07 01:24:50;;;;;;;1.23;0.80;;;;;;;11.19;100.00;101739.94;5197938;28;20029;-74
2022/08/07 01:27:21;;;;;;;1.38;0.70;;;;;;;11.15;100.00;101738.28;5197220;28;20032;-74
2022/08/07 01:29:51;;;;;;;1.58;0.65;;;;;;;11.16;100.00;101728.66;5199093;28;20037;-75
2022/08/07 01:32:21;;;;;;;1.20;0.80;;;;;;;11.24;100.00;101732.84;5199129;28;20017;-75
2022/08/07 01:34:52;;;;;;;1.77;0.85;;;;;;;11.20;100.00;101730.31;5199113;28;20029;-74
2022/08/07 01:37:23;;;;;;;2.75;0.75;;;;;;;11.67;100.00;101736.38;5197732;28;20034;-74
2022/08/07 01:39:57;;;;;;;1.70;0.68;;;;;;;11.85;100.00;101733.34;5199088;28;20525;-74
2022/08/07 01:42:28;;;;;;;1.35;0.75;;;;;;;11.82;100.00;101738.63;5199533;28;20032;-74
2022/08/07 01:44:59;;;;;;;0.90;0.63;;;;;;;11.56;100.00;101735.72;5199342;28;20029;-75
2022/08/07 01:47:29;;;;;;;0.80;0.70;;;;;;;11.67;100.00;101733.75;5196806;28;20030;-74
2022/08/07 01:50:00;;;;;;;1.10;0.50;;;;;;;11.68;100.00;101735.47;5198672;28;20041;-74
2022/08/07 01:52:33;;;;;;;1.10;0.70;;;;;;;11.97;100.00;101732.19;5197776;28;20486;-74
2022/08/07 01:55:06;;;;;;;2.20;0.50;;;;;;;11.51;97.80;101732.31;5198067;28;20028;-74
2022/08/07 01:57:38;;;;;;;1.70;0.60;;;;;;;11.23;100.00;101728.50;5197010;28;20105;-75
2022/08/07 02:00:12;;;;;;;0.73;0.50;;;;;;;11.23;100.00;101731.13;5197558;28;20041;-74
2022/08/07 02:02:49;;;;;;;1.00;0.60;;;;;;;10.91;100.00;101732.66;5229958;28;20045;-75
2022/08/07 02:05:49;;;;;;;1.95;0.70;;;;;;;11.03;100.00;101725.44;5197141;28;20375;-75
2022/08/07 02:08:23;;;;;;;1.05;0.60;;;;;;;10.70;100.00;101738.25;5195362;28;20565;-75
2022/08/07 02:10:58;;;;;;;1.00;0.57;;;;;;;10.88;100.00;101724.00;5198168;28;20045;-75
2022/08/07 02:13:30;;;;;;;1.90;0.60;;;;;;;11.22;100.00;101724.19;5198347;28;20025;-75
2022/08/07 02:16:03;;;;;;;2.65;0.80;;;;;;;11.24;100.00;101729.41;5197870;28;20021;-75
2022/08/07 02:18:37;;;;;;;1.25;0.80;;;;;;;10.81;100.00;101727.59;5196374;28;20109;-75
2022/08/07 02:21:07;;;;;;;2.08;0.90;;;;;;;10.84;100.00;101724.94;5198756;28;20053;-75
2022/08/07 02:23:39;;;;;;;2.70;0.80;;;;;;;10.93;100.00;101724.75;5198860;28;20065;-74
2022/08/07 02:26:12;;;;;;;2.78;1.00;;;;;;;11.06;100.00;101733.22;5198511;28;20057;-75
2022/08/07 02:28:43;;;;;;;2.28;1.00;;;;;;;11.42;100.00;101722.00;5195266;28;20036;-75
2022/08/07 02:31:13;;;;;;;2.03;0.85;;;;;;;11.63;100.00;101718.97;5198568;28;20502;-75
2022/08/07 02:33:45;;;;;;;2.83;0.88;;;;;;;11.47;100.00;101714.91;5201197;28;20029;-74
2022/08/07 02:36:17;;;;;;;1.27;0.73;;;;;;;11.46;100.00;101728.06;5203132;28;20024;-75
2022/08/07 02:38:50;;;;;;;1.65;0.50;;;;;;;11.62;100.00;101714.63;5201951;28;20072;-75
2022/08/07 02:41:22;;;;;;;1.52;0.90;;;;;;;11.60;100.00;101720.81;5202242;28;20022;-75
2022/08/07 02:43:55;;;;;;;1.77;0.63;;;;;;;10.99;100.00;101719.44;5201783;28;20057;-75
2022/08/07 02:46:29;;;;;;;1.00;0.70;;;;;;;11.18;100.00;101717.28;5201856;28;20391;-75
2022/08/07 02:48:59;;;;;;;2.70;0.80;;;;;;;11.40;100.00;101712.47;5201686;28;20194;-75
2022/08/07 02:51:33;;;;;;;1.83;0.70;;;;;;;11.51;99.75;101713.97;5201890;28;20036;-74
2022/08/07 02:54:08;;;;;;;1.23;0.55;;;;;;;11.50;99.11;101714.00;5202470;28;20025;-75
2022/08/07 02:56:40;;;;;;;1.43;0.70;;;;;;;11.20;97.20;101720.72;5201516;28;20109;-74
2022/08/07 02:59:13;;;;;;;1.98;0.90;;;;;;;10.74;100.00;101716.41;5201956;28;20036;-74
2022/08/07 03:01:44;;;;;;;3.35;0.70;;;;;;;10.94;100.00;101710.78;5198440;28;20033;-75
2022/08/07 03:04:17;;;;;;;5.55;1.00;;;;;;;11.22;100.00;101713.72;5200921;28;20498;-75
2022/08/07 03:06:49;;;;;;;3.03;0.80;;;;;;;10.57;100.00;101720.19;5201247;28;20040;-74
2022/08/07 03:09:20;;;;;;;2.08;0.85;;;;;;;10.53;100.00;101718.53;5198015;28;20037;-75
2022/08/07 03:11:50;;;;;;;2.22;0.80;;;;;;;10.39;100.00;101720.50;5201079;28;20490;-75
2022/08/07 03:14:21;;;;;;;1.45;0.77;;;;;;;10.18;100.00;101726.94;5201121;28;20029;-75
2022/08/07 03:16:51;;;;;;;4.35;1.00;;;;;;;10.15;100.00;101720.91;5201854;28;20440;-74
2022/08/07 03:19:23;;;;;;;1.95;0.80;;;;;;;10.07;100.00;101730.59;5201812;28;20048;-75
2022/08/07 03:21:54;;;;;;;2.25;0.70;;;;;;;10.14;100.00;101716.56;5201360;28;20022;-74
2022/08/07 03:24:26;;;;;;;1.08;0.65;;;;;;;10.11;100.00;101724.44;5201929;28;20017;-75
2022/08/07 03:27:04;;;;;;;1.55;0.80;;;;;;;10.02;100.00;101724.59;5209309;28;20033;-74
2022/08/07 03:29:43;;;;;;;1.23;0.75;;;;;;;9.99;100.00;101724.59;5209449;28;20025;-75
2022/08/07 03:32:15;;;;;;;3.13;0.75;;;;;;;10.39;100.00;101721.38;5209540;28;20036;-74
2022/08/07 03:34:50;;;;;;;2.15;0.75;;;;;;;10.52;100.00;101724.66;5207681;28;20507;-74
2022/08/07 03:37:22;;;;;;;1.03;0.70;;;;;;;10.89;100.00;101717.88;5205296;28;20025;-74
2022/08/07 03:39:53;;;;;;;1.38;0.90;;;;;;;10.94;100.00;101709.06;5202259;28;20764;-75
2022/08/07 03:42:24;;;;;;;4.60;0.85;;;;;;;10.61;100.00;101732.31;5201682;28;20096;-75
2022/08/07 03:44:55;;;;;;;2.13;1.00;;;;;;;10.42;100.00;101726.56;5200673;28;20394;-74
2022/08/07 03:47:27;;;;;;;2.42;0.90;;;;;;;10.41;100.00;101716.09;5201159;28;20027;-75
2022/08/07 03:49:57;;;;;;;5.00;0.90;;;;;;;10.69;100.00;101725.22;5201370;28;20029;-75
2022/08/07 03:52:29;;;;;;;2.60;0.93;;;;;;;10.86;100.00;101718.78;5201369;28;20025;-75
2022/08/07 03:55:00;;;;;;;1.05;0.80;;;;;;;10.50;100.00;101718.59;5201559;28;20037;-75
2022/08/07 03:57:31;;;;;;;2.25;0.82;;;;;;;10.47;100.00;101722.09;5200710;28;20052;-75
2022/08/07 04:00:03;;;;;;;5.20;0.73;;;;;;;10.73;100.00;101719.91;5201294;28;20048;-75
2022/08/07 04:02:33;;;;;;;1.52;0.85;;;;;;;10.30;100.00;101729.34;5201501;28;20502;-74
2022/08/07 04:05:04;;;;;;;1.60;0.80;;;;;;;10.67;100.00;101732.22;5200053;28;20044;-74
2022/08/07 04:07:35;;;;;;;1.45;0.95;;;;;;;10.52;100.00;101730.72;5199437;28;20032;-74
2022/08/07 04:10:05;;;;;;;1.02;0.77;;;;;;;10.23;100.00;101725.13;5201211;28;20037;-75
2022/08/07 04:12:36;;;;;;;2.22;0.80;;;;;;;10.13;100.00;101735.75;5199614;28;20025;-75
2022/08/07 04:15:08;;;;;;;1.02;0.60;;;;;;;10.25;100.00;101727.69;5200821;28;20018;-75
2022/08/07 04:17:41;;;;;;;3.50;0.80;;;;;;;9.84;100.00;101728.28;5200442;28;20021;-75
2022/08/07 04:20:13;;;;;;;0.90;0.63;;;;;;;9.86;100.00;101729.13;5197123;28;20537;-75
2022/08/07 04:22:43;;;;;;;1.50;0.63;;;;;;;10.08;100.00;101729.72;5199308;28;20025;-74
2022/08/07 04:25:14;;;;;;;2.40;0.63;;;;;;;9.97;100.00;101732.44;5201049;28;20026;-74
2022/08/07 04:27:44;;;;;;;1.67;0.80;;;;;;;9.98;100.00;101733.31;5199575;28;20037;-75
2022/08/07 04:30:15;;;;;;;2.65;0.80;;;;;;;10.09;100.00;101731.44;5200644;28;20131;-74
2022/08/07 04:32:46;;;;;;;1.25;0.95;;;;;;;10.22;100.00;101722.53;5200629;28;20034;-75
2022/08/07 04:35:16;;;;;;;2.15;1.00;;;;;;;10.27;100.00;101725.91;5199929;28;20037;-75
2022/08/07 04:37:47;;;;;;;4.68;0.90;;;;;;;10.36;100.00;101736.25;5198919;28;20057;-74
2022/08/07 04:40:18;;;;;;;1.42;0.90;;;;;;;10.45;100.00;101738.69;5200229;28;20319;-75
2022/08/07 04:42:48;;;;;;;1.58;0.90;;;;;;;10.33;100.00;101737.13;5200353;28;20041;-75
2022/08/07 04:45:19;;;;;;;1.15;0.80;;;;;;;10.39;100.00;101738.78;5198773;28;20120;-75
2022/08/07 04:48:00;;;;;;;1.98;1.10;;;;;;;10.40;100.00;101732.69;5199857;28;20067;-75
2022/08/07 04:50:30;;;;;;;1.52;0.80;;;;;;;10.95;100.00;101729.09;5200217;28;20031;-75
2022/08/07 04:53:07;;;;;;;1.10;0.70;;;;;;;12.09;100.00;101724.91;5200445;28;20471;-75
2022/08/07 04:55:48;;;;;;;2.78;1.00;;;;;;;13.49;95.30;101722.94;5199134;28;20071;-75
2022/08/07 04:58:30;;;;;;;1.40;0.70;;;;;;;15.44;81.43;101713.75;5196180;28;20040;-75
2022/08/07 05:01:15;;;;;;;1.42;0.75;;;;;;;15.36;82.97;101716.66;5200428;28;20029;-75
2022/08/07 05:04:05;;;;;;;1.13;0.80;;;;;;;15.99;80.65;101723.91;5196885;28;20049;-76
2022/08/07 05:06:48;;;;;;;1.85;0.80;;;;;;;17.72;75.80;101707.53;5199304;28;20059;-75
2022/08/07 05:09:26;;;;;;;1.90;0.70;;;;;;;17.66;73.50;101713.13;5196995;28;20033;-76
2022/08/07 05:12:01;;;;;;;1.85;0.77;;;;;;;16.74;77.05;101720.81;5199965;28;20025;-75
2022/08/07 05:14:41;;;;;;;2.60;0.60;;;;;;;16.93;76.42;101718.16;5199799;28;20036;-75
2022/08/07 05:17:17;;;;;;;3.05;0.80;;;;;;;17.13;76.23;101717.31;5199499;28;20040;-76
2022/08/07 05:19:50;;;;;;;1.13;0.80;;;;;;;17.34;75.62;101721.66;5196344;28;20052;-76
2022/08/07 05:22:22;;;;;;;2.30;0.70;;;;;;;21.11;66.36;101704.00;5198282;28;20033;-76
2022/08/07 05:24:55;;;;;;;3.08;0.80;;;;;;;19.20;69.37;101719.47;5198320;28;20029;-76
2022/08/07 05:27:27;;;;;;;1.83;0.57;;;;;;;21.99;62.90;101703.69;5198318;28;20190;-76
2022/08/07 05:30:00;;;;;;;1.92;0.95;;;;;;;20.69;66.56;101726.00;5198098;28;20030;-76
2022/08/07 05:32:31;;;;;;;2.38;0.88;;;;;;;21.70;61.29;101725.09;5199015;28;20491;-76
2022/08/07 05:35:02;;;;;;;2.67;0.73;;;;;;;20.07;68.34;101725.25;5199574;28;20052;-76
2022/08/07 05:37:33;;;;;;;1.17;0.80;;;;;;;20.82;65.81;101726.13;5197380;28;20191;-76
2022/08/07 05:40:04;;;;;;;0.77;0.70;;;;;;;21.61;63.49;101718.53;5198024;28;20120;-76
2022/08/07 05:42:34;;;;;;;1.38;0.65;;;;;;;21.70;64.68;101719.78;5199434;28;20029;-75
2022/08/07 05:45:05;;;;;;;1.88;0.70;;;;;;;24.00;60.07;101716.31;5198014;28;20528;-76
2022/08/07 05:47:36;;;;;;;1.95;0.70;;;;;;;23.73;59.63;101705.78;5198901;28;20045;-77
2022/08/07 05:50:07;;;;;;;1.65;0.90;;;;;;;22.41;62.61;101708.03;5199269;28;20030;-76
2022/08/07 05:52:38;;;;;;;2.78;0.80;;;;;;;21.94;65.16;101715.59;5199622;28;20033;-76
2022/08/07 05:55:08;;;;;;;1.15;0.70;;;;;;;23.80;62.16;101715.06;5199592;28;20017;-76
2022/08/07 05:57:40;;;;;;;3.13;0.95;;;;;;;24.38;59.13;101715.19;5199039;28;20132;-77
2022/08/07 06:00:11;;;;;;;2.35;0.70;;;;;;;23.86;61.22;101717.31;5199002;28;20467;-76
2022/08/07 06:02:46;;;;;;;2.50;1.08;;;;;;;26.99;54.19;101701.00;5199072;28;20033;-76
2022/08/07 06:05:19;;;;;;;1.73;0.73;;;;;;;24.86;57.15;101719.56;5196081;28;20075;-76
2022/08/07 06:07:49;;;;;;;2.25;1.10;;;;;;;25.67;54.49;101718.47;5201462;28;20033;-76
2022/08/07 06:10:21;;;;;;;2.20;1.10;;;;;;;26.54;53.91;101712.09;5202497;28;20025;-76
2022/08/07 06:12:52;;;;;;;2.45;1.27;;;;;;;25.36;53.78;101708.47;5203073;28;20033;-76
2022/08/07 06:15:25;;;;;;;3.70;1.17;;;;;;;22.94;60.46;101716.78;5203010;28;20056;-75
2022/08/07 06:17:57;;;;;;;1.83;1.23;;;;;;;23.39;60.68;101716.31;5198544;28;20026;-75
2022/08/07 06:20:29;;;;;;;2.75;1.60;;;;;;;22.32;63.32;101722.81;5201707;28;20029;-76
2022/08/07 06:23:01;;;;;;;2.97;1.23;;;;;;;24.16;59.41;101717.75;5202599;28;20490;-75
2022/08/07 06:25:32;;;;;;;1.73;1.00;;;;;;;24.22;59.20;101714.63;5202882;28;20408;-76
2022/08/07 06:28:08;;;;;;;4.97;1.50;;;;;;;20.91;67.26;101728.28;5202745;28;20029;-76
2022/08/07 06:30:39;;;;;;;5.53;1.35;;;;;;;20.08;70.75;101726.97;5202883;28;20072;-76
2022/08/07 06:33:09;;;;;;;4.43;1.40;;;;;;;21.60;67.87;101718.63;5201684;28;20468;-76
2022/08/07 06:35:39;;;;;;;3.75;1.50;;;;;;;22.02;65.54;101714.13;5201312;28;20092;-77
2022/08/07 06:38:10;;;;;;;2.38;1.30;;;;;;;23.13;64.26;101709.25;5202392;28;20032;-76
2022/08/07 06:40:45;;;;;;;2.90;1.50;;;;;;;22.23;65.90;101711.88;5202994;28;20104;-76
2022/08/07 06:43:19;;;;;;;3.22;1.45;;;;;;;24.66;59.99;101704.16;5198747;28;20070;-76
2022/08/07 06:45:49;;;;;;;3.58;1.70;;;;;;;23.85;60.18;101704.94;5199642;28;20034;-75
2022/08/07 06:48:20;;;;;;;3.45;1.50;;;;;;;24.21;60.98;101704.91;5201306;28;20437;-76
2022/08/07 06:50:51;;;;;;;3.58;1.60;;;;;;;25.46;58.52;101699.59;5202693;28;20458;-76
2022/08/07 06:53:24;;;;;;;3.20;1.83;;;;;;;26.93;55.22;101690.78;5200917;28;20025;-76
2022/08/07 06:55:55;;;;;;;2.58;1.50;;;;;;;26.31;57.20;101697.03;5201986;28;20033;-76
2022/08/07 06:58:27;;;;;;;2.88;1.60;;;;;;;26.40;56.43;101698.97;5200489;28;20584;-76
2022/08/07 07:00:58;;;;;;;4.03;1.65;;;;;;;27.25;55.53;101696.09;5200865;28;20469;-76
2022/08/07 07:03:29;;;;;;;3.05;1.70;;;;;;;28.77;51.04;101691.94;5202104;28;20029;-76
2022/08/07 07:06:00;;;;;;;2.50;1.75;;;;;;;27.89;50.80;101695.69;5201830;28;20033;-76
2022/08/07 07:08:30;;;;;;;5.00;1.88;;;;;;;28.00;51.41;101702.78;5201815;28;20033;-76
2022/08/07 07:11:03;;;;;;;3.65;1.95;;;;;;;28.61;50.91;101688.97;5202132;28;20030;-76
2022/08/07 07:13:38;;;;;;;3.83;1.70;;;;;;;29.70;50.96;101680.19;5202149;28;20614;-76
2022/08/07 07:16:17;;;;;;;7.10;2.03;;;;;;;28.45;49.95;101690.56;5202217;28;20037;-77
2022/08/07 07:18:53;;;;;;;3.40;1.90;;;;;;;27.83;51.95;101690.00;5196617;28;20036;-76
2022/08/07 07:21:28;;;;;;;5.72;2.00;;;;;;;26.82;53.08;101690.00;5201910;28;20395;-76
2022/08/07 07:23:59;;;;;;;4.50;2.30;;;;;;;28.89;50.66;101685.44;5201641;28;20052;-77
2022/08/07 07:26:33;;;;;;;3.25;2.17;;;;;;;28.77;48.91;101690.13;5201441;28;20460;-76
2022/08/07 07:29:13;;;;;;;3.35;1.65;;;;;;;29.72;49.14;101679.06;5198160;28;20118;-77
2022/08/07 07:31:46;;;;;;;7.30;1.80;;;;;;;26.98;52.93;101688.56;5200072;28;20033;-74
2022/08/07 07:34:23;;;;;;;3.65;2.00;;;;;;;30.33;47.45;101677.41;5200471;28;20072;-74
2022/08/07 07:36:56;;;;;;;4.30;2.10;;;;;;;26.83;52.07;101689.03;5201352;28;20032;-74
2022/08/07 07:39:29;;;;;;;4.80;1.98;;;;;;;27.79;51.81;101685.91;5197886;28;20028;-74
2022/08/07 07:42:01;;;;;;;4.40;1.70;;;;;;;28.71;52.61;101683.59;5200915;28;20104;-74
2022/08/07 07:44:34;;;;;;;4.00;1.67;;;;;;;28.62;51.67;101679.06;5201012;28;20025;-74
2022/08/07 07:47:07;;;;;;;4.45;1.60;;;;;;;28.64;49.90;101680.63;5200373;28;20028;-74
2022/08/07 07:49:39;;;;;;;2.45;1.50;;;;;;;28.16;50.89;101676.19;5199522;28;20049;-74
2022/08/07 07:52:12;;;;;;;5.95;1.90;;;;;;;30.54;48.21;101666.28;5196625;28;20029;-74
2022/08/07 07:54:45;;;;;;;4.10;1.65;;;;;;;30.58;48.49;101665.84;5195663;28;20037;-74
2022/08/07 07:57:20;;;;;;;2.95;1.73;;;;;;;29.19;51.32;101672.59;5198792;28;20506;-74
2022/08/07 07:59:52;;;;;;;2.05;1.50;;;;;;;28.29;51.75;101666.84;5199226;28;20038;-74
2022/08/07 08:02:25;;;;;;;3.22;1.40;;;;;;;28.16;53.38;101658.19;5198471;28;20025;-74
2022/08/07 08:04:56;;;;;;;2.63;1.48;;;;;;;28.98;52.29;101657.63;5200978;28;20116;-74
2022/08/07 08:07:26;;;;;;;3.05;1.67;;;;;;;30.08;49.89;101645.78;5200642;28;20172;-73
2022/08/07 08:09:58;;;;;;;3.45;1.88;;;;;;;30.57;45.79;101649.78;5201092;28;20025;-74
2022/08/07 08:12:30;;;;;;;3.53;1.42;;;;;;;31.71;45.57;101652.91;5201269;28;20120;-74
2022/08/07 08:15:00;;;;;;;2.88;1.50;;;;;;;29.92;48.08;101644.75;5201475;28;20025;-74
2022/08/07 08:17:34;;;;;;;3.35;1.40;;;;;;;30.51;45.85;101645.00;5198775;28;20029;-73
2022/08/07 08:20:06;;;;;;;2.88;1.38;;;;;;;31.67;47.48;101648.84;5200220;28;20041;-74
2022/08/07 08:28:25;;;;;;;3.17;1.40;;;;;;;32.04;43.69;101646.56;5201619;28;20404;-75
2022/08/07 08:30:58;;;;;;;2.20;1.20;;;;;;;32.94;42.75;101641.91;5200099;28;20029;-75
2022/08/07 08:33:35;;;;;;;1.48;0.93;;;;;;;31.74;44.44;101649.03;5197368;28;20052;-74
2022/08/07 08:36:09;;;;;;;3.80;0.95;;;;;;;31.06;44.88;101645.44;5201089;28;20029;-74
2022/08/07 08:38:42;;;;;;;2.88;0.70;;;;;;;31.16;42.87;101643.50;5201068;28;20112;-75
2022/08/07 08:41:23;;;;;;;1.85;0.77;;;;;;;33.67;42.60;101636.06;5198517;28;20025;-75
2022/08/07 08:43:57;;;;;;;1.60;0.80;;;;;;;33.25;42.04;101637.44;5199752;28;20033;-75
2022/08/07 08:46:27;;;;;;;3.88;0.85;;;;;;;31.67;44.11;101642.59;5197831;28;20025;-74
2022/08/07 08:49:23;;;;;;;4.47;1.17;;;;;;;32.60;41.51;101640.38;5199550;28;20318;-75
2022/08/07 08:52:00;;;;;;;4.95;1.00;;;;;;;31.49;43.01;101639.94;5193799;28;20037;-75
2022/08/07 08:54:40;;;;;;;3.10;0.70;;;;;;;31.89;44.00;101637.41;5199021;28;20067;-75
2022/08/07 08:57:19;;;;;;;4.03;1.00;;;;;;;32.17;42.02;101638.84;5198066;28;20026;-75
2022/08/07 08:59:52;;;;;;;2.55;0.75;;;;;;;30.70;44.90;101643.00;5196771;28;20169;-75
2022/08/07 09:02:38;;;;;;;2.78;0.45;;;;;;;31.51;41.66;101637.94;5194324;28;20033;-75
2022/08/07 09:05:28;;;;;;;1.48;0.80;;;;;;;32.06;41.06;101636.41;5198317;28;20033;-76
2022/08/07 09:08:29;;;;;;;8.25;1.00;;;;;;;30.83;45.09;101629.06;5198260;28;20037;-76
2022/08/07 09:11:33;;;;;;;1.00;0.60;;;;;;;31.09;42.78;101626.22;5198830;28;20028;-76
2022/08/07 09:14:22;;;;;;;2.47;0.40;;;;;;;30.37;43.12;101627.53;5198905;28;20041;-75
2022/08/07 09:16:58;;;;;;;1.88;0.50;;;;;;;30.93;42.65;101626.13;5196057;28;20386;-75
2022/08/07 09:19:50;;;;;;;1.98;0.60;;;;;;;29.22;45.04;101628.38;5198422;28;20040;-75
2022/08/07 09:22:27;;;;;;;1.20;0.45;;;;;;;28.63;46.01;101627.78;5195448;28;20234;-74
2022/08/07 09:25:15;;;;;;;3.03;0.77;;;;;;;28.09;45.99;101627.50;5197863;28;20033;-76
2022/08/07 09:27:51;;;;;;;0.75;0.38;;;;;;;27.65;46.23;101621.75;5193650;28;20032;-75
2022/08/07 09:30:23;;;;;;;2.70;0.57;;;;;;;27.35;45.65;101619.97;5196147;28;20025;-75
2022/08/07 09:33:05;;;;;;;2.47;0.60;;;;;;;27.72;44.92;101618.41;5197952;28;20410;-75
2022/08/07 09:35:35;;;;;;;1.15;0.60;;;;;;;27.19;46.01;101622.28;5196382;28;20359;-75
2022/08/07 09:38:11;;;;;;;1.38;0.55;;;;;;;26.66;45.59;101614.47;5195101;28;20029;-75
2022/08/07 09:41:13;;;;;;;1.80;0.30;;;;;;;27.13;43.01;101604.03;5198035;28;20033;-75
2022/08/07 09:44:10;;;;;;;2.88;0.50;;;;;;;27.49;45.66;101600.78;5199410;28;20033;-75
2022/08/07 09:46:56;;;;;;;2.05;0.40;;;;;;;27.24;46.49;101590.50;5204412;28;20028;-75
2022/08/07 09:49:47;;;;;;;2.25;0.70;;;;;;;27.59;46.45;101590.88;5200343;28;20554;-75
2022/08/07 09:52:35;;;;;;;1.15;0.40;;;;;;;27.00;45.86;101592.66;5200767;28;20087;-75
2022/08/07 09:55:44;;;;;;;2.40;0.60;;;;;;;27.04;46.99;101596.75;5203577;28;20503;-75
2022/08/07 09:58:48;;;;;;;4.00;0.70;;;;;;;27.00;47.01;101592.66;5157675;28;20044;-75
2022/08/07 10:01:43;;;;;;;1.00;0.40;;;;;;;26.48;47.44;101589.22;5156818;28;20026;-75
2022/08/07 10:04:47;;;;;;;0.95;0.45;;;;;;;26.65;47.44;101588.63;5195005;28;20525;-75
2022/08/07 10:07:43;;;;;;;1.65;0.45;;;;;;;26.82;46.19;101578.16;5198919;28;20407;-75
2022/08/07 10:10:27;;;;;;;;;;;;;;;26.28;45.45;101582.00;5195955;28;20045;-75
2022/08/07 10:13:16;;;;;;;1.25;0.40;;;;;;;26.84;48.65;101567.25;5199463;28;19917;-75
2022/08/07 10:16:03;;;;;;;1.58;0.60;;;;;;;26.36;46.96;101576.81;5196865;28;20406;-75
2022/08/07 10:18:58;;;;;;;3.25;0.60;;;;;;;25.92;47.50;101578.88;5197461;28;20056;-74
2022/08/07 10:21:52;;;;;;;1.40;0.68;;;;;;;25.20;52.07;101574.16;5199851;28;20620;-74
2022/08/07 10:24:50;;;;;;;3.00;0.55;;;;;;;24.34;50.74;101566.72;5200554;28;20473;-74
2022/08/07 10:27:38;;;;;;;1.17;0.50;;;;;;;24.60;49.60;101562.91;5196599;28;20021;-71
2022/08/07 10:30:12;;;;;;;1.85;0.70;;;;;;;24.82;48.38;101563.75;5199869;28;20808;-74
2022/08/07 10:32:56;;;;;;;1.55;0.52;;;;;;;25.34;47.46;101561.34;5198197;28;20036;-74
2022/08/07 10:35:41;;;;;;;2.78;0.65;;;;;;;25.02;47.33;101564.88;5196770;28;20444;-74
2022/08/07 10:38:37;;;;;;;3.33;0.60;;;;;;;25.02;47.01;101560.38;5200630;28;20039;-72
2022/08/07 10:41:14;;;;;;;2.07;0.70;;;;;;;25.29;46.02;101547.47;5200627;28;20029;-74
2022/08/07 10:43:58;;;;;;;1.73;0.50;;;;;;;25.25;45.99;101561.22;5199162;28;20032;-75
2022/08/07 10:46:38;;;;;;;1.77;0.70;;;;;;;25.48;45.70;101552.19;5199847;28;20068;-74
2022/08/07 10:49:25;;;;;;;0.90;0.50;;;;;;;25.81;47.50;101541.38;5200616;28;20449;-74
2022/08/07 10:52:05;;;;;;;1.27;0.47;;;;;;;25.48;47.09;101544.16;5199684;28;20143;-74
2022/08/07 10:54:39;;;;;;;1.05;0.30;;;;;;;26.17;45.98;101538.31;5195519;28;20025;-74
2022/08/07 10:57:49;;;;;;;2.00;0.65;;;;;;;25.82;47.03;101541.25;5196099;28;20040;-74
2022/08/07 11:00:20;;;;;;;1.27;0.50;;;;;;;25.86;48.26;101529.31;5195649;28;20112;-74
2022/08/07 11:03:15;;;;;;;1.95;0.50;;;;;;;25.00;47.18;101537.41;5196842;28;20045;-75
2022/08/07 11:05:49;;;;;;;1.17;0.50;;;;;;;24.61;48.05;101532.53;5195042;28;20041;-74
2022/08/07 11:08:42;;;;;;;0.85;0.40;;;;;;;24.56;47.22;101524.00;5196926;28;20034;-74
2022/08/07 11:11:46;;;;;;;0.98;0.50;;;;;;;25.05;51.26;101520.00;5197740;28;20120;-74
2022/08/07 11:14:27;;;;;;;1.70;0.60;;;;;;;24.76;48.62;101520.59;5197776;28;20041;-75
2022/08/07 11:17:17;;;;;;;1.88;0.50;;;;;;;25.16;48.74;101516.44;5197299;28;20040;-74
2022/08/07 11:19:54;;;;;;;1.20;0.40;;;;;;;24.41;51.22;101518.97;5195399;28;20067;-74
2022/08/07 11:22:45;;;;;;;2.80;0.55;;;;;;;24.42;50.43;101510.81;5194380;28;20192;-75
2022/08/07 11:25:21;;;;;;;1.88;0.60;;;;;;;24.82;50.95;101512.94;5196758;28;20518;-74
2022/08/07 11:28:09;;;;;;;1.70;0.63;;;;;;;24.73;47.99;101506.63;5195294;28;20510;-75
2022/08/07 11:30:41;;;;;;;1.02;0.40;;;;;;;25.13;48.93;101503.31;5195495;28;20033;-75
2022/08/07 11:33:22;;;;;;;1.05;0.55;;;;;;;24.92;48.78;101502.34;5197801;28;20410;-74
2022/08/07 11:36:30;;;;;;;2.80;0.47;;;;;;;24.95;50.73;101496.78;5194706;28;20131;-75
2022/08/07 11:39:24;;;;;;;1.70;0.50;;;;;;;24.83;50.65;101490.56;5192320;28;20563;-75
2022/08/07 11:42:16;;;;;;;2.38;0.63;;;;;;;24.53;49.19;101484.13;5196995;28;20147;-75
2022/08/07 11:45:11;;;;;;;1.80;0.57;;;;;;;24.42;50.45;101484.09;5193874;28;20111;-75
2022/08/07 11:48:00;;;;;;;1.23;0.70;;;;;;;24.33;49.36;101482.16;5195933;28;20112;-74
2022/08/07 11:51:08;;;;;;;2.55;0.52;;;;;;;24.06;49.96;101478.94;5194445;28;20033;-75
2022/08/07 11:53:57;;;;;;;0.75;0.50;;;;;;;24.09;49.81;101483.19;5196184;28;20032;-75
2022/08/07 11:56:40;;;;;;;2.55;0.50;;;;;;;23.88;49.52;101485.69;5193834;28;20036;-74
2022/08/07 11:59:29;;;;;;;1.27;0.50;;;;;;;24.00;50.11;101483.88;5196147;28;20131;-75
2022/08/07 12:02:21;;;;;;;1.00;0.50;;;;;;;23.99;50.01;101485.72;5196562;28;20033;-74
2022/08/07 12:05:10;;;;;;;1.27;0.50;;;;;;;24.16;50.81;101481.75;5195298;28;20084;-74
2022/08/07 12:08:04;;;;;;;1.60;0.70;;;;;;;24.10;49.69;101477.75;5195599;28;20025;-74
2022/08/07 12:10:47;;;;;;;1.35;0.50;;;;;;;24.14;49.55;101476.53;5196101;28;20022;-75